sensor_id;sensor_type;location;lat;lon;timestamp;P1;durP1;ratioP1;P2;durP2;ratioP2
31764;SDS011;18338;53.240;8.798;2022-08-01T00:00:01;9.18;;;8.27;;
31764;SDS011;18338;53.240;8.798;2022-08-01T00:02:30;10.05;;;9.02;;
31764;SDS011;18338;53.240;8.798;2022-08-01T00:04:57;10.63;;;9.30;;
31764;SDS011;18338;53.240;8.798;2022-08-01T00:07:24;10.45;;;9.35;;
31764;SDS011;18338;53.240;8.798;2022-08-01T00:09:51;10.32;;;9.23;;
31764;SDS011;18338;53.240;8.798;2022-08-01T00:12:17;11.18;;;10.02;;
31764;SDS011;18338;53.240;8.798;2022-08-01T00:14:44;12.57;;;10.07;;
31764;SDS011;18338;53.240;8.798;2022-08-01T00:17:11;11.52;;;10.07;;
31764;SDS011;18338;53.240;8.798;2022-08-01T00:19:37;13.05;;;10.43;;
31764;SDS011;18338;53.240;8.798;2022-08-01T00:22:04;13.75;;;9.95;;
31764;SDS011;18338;53.240;8.798;2022-08-01T00:24:31;11.27;;;9.95;;
31764;SDS011;18338;53.240;8.798;2022-08-01T00:26:58;16.25;;;11.32;;
31764;SDS011;18338;53.240;8.798;2022-08-01T00:29:24;14.15;;;11.10;;
31764;SDS011;18338;53.240;8.798;2022-08-01T00:32:11;14.68;;;11.00;;
31764;SDS011;18338;53.240;8.798;2022-08-01T00:34:38;14.40;;;11.13;;
31764;SDS011;18338;53.240;8.798;2022-08-01T00:37:04;15.85;;;12.00;;
31764;SDS011;18338;53.240;8.798;2022-08-01T00:39:31;15.52;;;12.10;;
31764;SDS011;18338;53.240;8.798;2022-08-01T00:41:59;18.63;;;12.52;;
31764;SDS011;18338;53.240;8.798;2022-08-01T00:44:32;20.60;;;13.05;;
31764;SDS011;18338;53.240;8.798;2022-08-01T00:46:58;19.27;;;12.68;;
31764;SDS011;18338;53.240;8.798;2022-08-01T00:49:25;20.40;;;13.65;;
31764;SDS011;18338;53.240;8.798;2022-08-01T00:51:52;18.92;;;13.30;;
31764;SDS011;18338;53.240;8.798;2022-08-01T00:54:20;17.35;;;13.38;;
31764;SDS011;18338;53.240;8.798;2022-08-01T00:56:46;19.50;;;14.02;;
31764;SDS011;18338;53.240;8.798;2022-08-01T00:59:13;20.20;;;14.82;;
31764;SDS011;18338;53.240;8.798;2022-08-01T01:01:45;20.25;;;14.60;;
31764;SDS011;18338;53.240;8.798;2022-08-01T01:04:15;22.95;;;15.02;;
31764;SDS011;18338;53.240;8.798;2022-08-01T01:09:44;23.05;;;15.20;;
31764;SDS011;18338;53.240;8.798;2022-08-01T01:18:17;22.65;;;15.52;;
31764;SDS011;18338;53.240;8.798;2022-08-01T01:21:07;22.27;;;14.95;;
31764;SDS011;18338;53.240;8.798;2022-08-01T01:29:38;17.38;;;12.32;;
31764;SDS011;18338;53.240;8.798;2022-08-01T01:32:36;17.35;;;11.68;;
31764;SDS011;18338;53.240;8.798;2022-08-01T01:35:09;14.18;;;10.32;;
31764;SDS011;18338;53.240;8.798;2022-08-01T01:37:41;11.45;;;9.43;;
31764;SDS011;18338;53.240;8.798;2022-08-01T01:40:10;13.50;;;10.95;;
31764;SDS011;18338;53.240;8.798;2022-08-01T01:42:38;12.88;;;10.43;;
31764;SDS011;18338;53.240;8.798;2022-08-01T01:45:07;14.70;;;11.82;;
31764;SDS011;18338;53.240;8.798;2022-08-01T01:47:35;13.32;;;11.93;;
31764;SDS011;18338;53.240;8.798;2022-08-01T01:50:04;14.32;;;12.82;;
31764;SDS011;18338;53.240;8.798;2022-08-01T01:52:38;14.43;;;12.93;;
31764;SDS011;18338;53.240;8.798;2022-08-01T01:55:30;15.50;;;13.85;;
31764;SDS011;18338;53.240;8.798;2022-08-01T01:58:15;16.83;;;14.98;;
31764;SDS011;18338;53.240;8.798;2022-08-01T02:00:44;19.02;;;15.68;;
31764;SDS011;18338;53.240;8.798;2022-08-01T02:03:12;17.27;;;15.30;;
31764;SDS011;18338;53.240;8.798;2022-08-01T02:05:40;21.67;;;16.00;;
31764;SDS011;18338;53.240;8.798;2022-08-01T02:08:08;19.70;;;15.15;;
31764;SDS011;18338;53.240;8.798;2022-08-01T02:10:37;18.42;;;14.00;;
31764;SDS011;18338;53.240;8.798;2022-08-01T02:13:05;15.40;;;12.98;;
31764;SDS011;18338;53.240;8.798;2022-08-01T02:15:37;13.75;;;11.85;;
31764;SDS011;18338;53.240;8.798;2022-08-01T02:18:24;14.88;;;13.10;;
31764;SDS011;18338;53.240;8.798;2022-08-01T02:20:51;18.77;;;13.80;;
31764;SDS011;18338;53.240;8.798;2022-08-01T02:23:48;14.77;;;11.80;;
31764;SDS011;18338;53.240;8.798;2022-08-01T02:26:31;12.95;;;11.60;;
31764;SDS011;18338;53.240;8.798;2022-08-01T02:29:15;11.82;;;10.48;;
31764;SDS011;18338;53.240;8.798;2022-08-01T02:32:01;11.48;;;8.60;;
31764;SDS011;18338;53.240;8.798;2022-08-01T02:34:45;9.43;;;8.52;;
31764;SDS011;18338;53.240;8.798;2022-08-01T02:37:15;10.95;;;9.05;;
31764;SDS011;18338;53.240;8.798;2022-08-01T02:39:54;10.02;;;8.13;;
31764;SDS011;18338;53.240;8.798;2022-08-01T02:42:22;9.15;;;8.25;;
31764;SDS011;18338;53.240;8.798;2022-08-01T02:45:05;11.30;;;8.73;;
31764;SDS011;18338;53.240;8.798;2022-08-01T02:47:34;11.60;;;9.13;;
31764;SDS011;18338;53.240;8.798;2022-08-01T02:50:03;11.63;;;8.73;;
31764;SDS011;18338;53.240;8.798;2022-08-01T02:52:31;12.90;;;9.38;;
31764;SDS011;18338;53.240;8.798;2022-08-01T02:54:58;11.57;;;8.75;;
31764;SDS011;18338;53.240;8.798;2022-08-01T02:57:27;12.25;;;8.73;;
31764;SDS011;18338;53.240;8.798;2022-08-01T03:00:15;11.30;;;9.35;;
31764;SDS011;18338;53.240;8.798;2022-08-01T03:02:43;10.85;;;9.30;;
31764;SDS011;18338;53.240;8.798;2022-08-01T03:05:12;12.15;;;9.40;;
31764;SDS011;18338;53.240;8.798;2022-08-01T03:07:40;12.50;;;9.60;;
31764;SDS011;18338;53.240;8.798;2022-08-01T03:10:08;12.25;;;9.48;;
31764;SDS011;18338;53.240;8.798;2022-08-01T03:12:35;14.07;;;10.30;;
31764;SDS011;18338;53.240;8.798;2022-08-01T03:15:05;15.38;;;10.48;;
31764;SDS011;18338;53.240;8.798;2022-08-01T03:17:34;14.20;;;10.00;;
31764;SDS011;18338;53.240;8.798;2022-08-01T03:20:05;16.40;;;9.80;;
31764;SDS011;18338;53.240;8.798;2022-08-01T03:22:34;15.00;;;10.35;;
31764;SDS011;18338;53.240;8.798;2022-08-01T03:25:03;14.48;;;10.20;;
31764;SDS011;18338;53.240;8.798;2022-08-01T03:27:32;17.80;;;9.90;;
31764;SDS011;18338;53.240;8.798;2022-08-01T03:30:00;16.20;;;10.55;;
31764;SDS011;18338;53.240;8.798;2022-08-01T03:32:30;17.00;;;10.27;;
31764;SDS011;18338;53.240;8.798;2022-08-01T03:34:57;17.30;;;10.52;;
31764;SDS011;18338;53.240;8.798;2022-08-01T03:37:26;16.10;;;10.23;;
31764;SDS011;18338;53.240;8.798;2022-08-01T03:39:55;15.35;;;10.70;;
31764;SDS011;18338;53.240;8.798;2022-08-01T03:42:25;16.75;;;9.90;;
31764;SDS011;18338;53.240;8.798;2022-08-01T03:44:59;12.63;;;8.88;;
31764;SDS011;18338;53.240;8.798;2022-08-01T03:47:38;13.65;;;9.13;;
31764;SDS011;18338;53.240;8.798;2022-08-01T03:50:10;12.35;;;8.93;;
31764;SDS011;18338;53.240;8.798;2022-08-01T03:52:39;12.93;;;8.75;;
31764;SDS011;18338;53.240;8.798;2022-08-01T03:55:09;15.13;;;8.80;;
31764;SDS011;18338;53.240;8.798;2022-08-01T03:57:38;11.15;;;8.82;;
31764;SDS011;18338;53.240;8.798;2022-08-01T04:00:06;13.02;;;9.07;;
31764;SDS011;18338;53.240;8.798;2022-08-01T04:02:35;9.73;;;6.63;;
31764;SDS011;18338;53.240;8.798;2022-08-01T04:05:03;11.27;;;8.07;;
31764;SDS011;18338;53.240;8.798;2022-08-01T04:07:31;8.00;;;6.13;;
31764;SDS011;18338;53.240;8.798;2022-08-01T04:10:02;7.65;;;6.40;;
31764;SDS011;18338;53.240;8.798;2022-08-01T04:12:29;7.45;;;6.05;;
31764;SDS011;18338;53.240;8.798;2022-08-01T04:14:56;6.43;;;5.22;;
31764;SDS011;18338;53.240;8.798;2022-08-01T04:17:23;6.15;;;5.03;;
31764;SDS011;18338;53.240;8.798;2022-08-01T04:19:49;6.38;;;5.40;;
31764;SDS011;18338;53.240;8.798;2022-08-01T04:22:16;5.95;;;5.07;;
31764;SDS011;18338;53.240;8.798;2022-08-01T04:24:44;5.90;;;5.35;;
31764;SDS011;18338;53.240;8.798;2022-08-01T04:27:40;5.80;;;5.03;;
31764;SDS011;18338;53.240;8.798;2022-08-01T04:30:17;6.47;;;5.88;;
31764;SDS011;18338;53.240;8.798;2022-08-01T04:32:50;6.80;;;5.60;;
31764;SDS011;18338;53.240;8.798;2022-08-01T04:35:20;5.53;;;5.03;;
31764;SDS011;18338;53.240;8.798;2022-08-01T04:38:08;4.43;;;3.85;;
31764;SDS011;18338;53.240;8.798;2022-08-01T04:40:36;5.72;;;4.00;;
31764;SDS011;18338;53.240;8.798;2022-08-01T04:43:04;4.88;;;3.45;;
31764;SDS011;18338;53.240;8.798;2022-08-01T04:45:31;6.15;;;3.33;;
31764;SDS011;18338;53.240;8.798;2022-08-01T04:48:00;5.20;;;3.78;;
31764;SDS011;18338;53.240;8.798;2022-08-01T04:50:27;6.05;;;3.97;;
31764;SDS011;18338;53.240;8.798;2022-08-01T04:52:54;7.65;;;5.15;;
31764;SDS011;18338;53.240;8.798;2022-08-01T04:55:21;5.53;;;4.45;;
31764;SDS011;18338;53.240;8.798;2022-08-01T04:57:48;5.40;;;4.90;;
31764;SDS011;18338;53.240;8.798;2022-08-01T05:00:15;6.35;;;4.70;;
31764;SDS011;18338;53.240;8.798;2022-08-01T05:02:44;5.55;;;4.22;;
31764;SDS011;18338;53.240;8.798;2022-08-01T05:05:12;7.78;;;3.97;;
31764;SDS011;18338;53.240;8.798;2022-08-01T05:07:39;4.88;;;4.38;;
31764;SDS011;18338;53.240;8.798;2022-08-01T05:10:10;4.32;;;3.92;;
31764;SDS011;18338;53.240;8.798;2022-08-01T05:12:37;6.93;;;4.50;;
31764;SDS011;18338;53.240;8.798;2022-08-01T05:15:04;4.85;;;3.90;;
31764;SDS011;18338;53.240;8.798;2022-08-01T05:17:40;6.82;;;4.78;;
31764;SDS011;18338;53.240;8.798;2022-08-01T05:20:11;9.18;;;5.40;;
31764;SDS011;18338;53.240;8.798;2022-08-01T05:22:38;5.70;;;5.20;;
31764;SDS011;18338;53.240;8.798;2022-08-01T05:25:05;8.63;;;5.50;;
31764;SDS011;18338;53.240;8.798;2022-08-01T05:27:32;9.10;;;5.70;;
31764;SDS011;18338;53.240;8.798;2022-08-01T05:30:04;10.23;;;5.72;;
31764;SDS011;18338;53.240;8.798;2022-08-01T05:32:34;8.45;;;5.50;;
31764;SDS011;18338;53.240;8.798;2022-08-01T05:35:01;12.27;;;5.25;;
31764;SDS011;18338;53.240;8.798;2022-08-01T05:37:27;10.65;;;5.18;;
31764;SDS011;18338;53.240;8.798;2022-08-01T05:39:54;10.20;;;4.50;;
31764;SDS011;18338;53.240;8.798;2022-08-01T05:42:21;9.20;;;3.80;;
31764;SDS011;18338;53.240;8.798;2022-08-01T05:44:48;8.40;;;3.95;;
31764;SDS011;18338;53.240;8.798;2022-08-01T05:47:15;9.38;;;3.55;;
31764;SDS011;18338;53.240;8.798;2022-08-01T05:49:43;9.20;;;3.33;;
31764;SDS011;18338;53.240;8.798;2022-08-01T05:52:10;12.32;;;4.15;;
31764;SDS011;18338;53.240;8.798;2022-08-01T05:54:37;10.18;;;3.55;;
31764;SDS011;18338;53.240;8.798;2022-08-01T05:57:05;7.82;;;4.25;;
31764;SDS011;18338;53.240;8.798;2022-08-01T05:59:32;11.55;;;4.20;;
31764;SDS011;18338;53.240;8.798;2022-08-01T06:01:59;9.65;;;3.97;;
31764;SDS011;18338;53.240;8.798;2022-08-01T06:04:26;10.60;;;4.30;;
31764;SDS011;18338;53.240;8.798;2022-08-01T06:06:52;8.73;;;3.78;;
31764;SDS011;18338;53.240;8.798;2022-08-01T06:09:19;11.50;;;4.25;;
31764;SDS011;18338;53.240;8.798;2022-08-01T06:11:46;11.65;;;4.25;;
31764;SDS011;18338;53.240;8.798;2022-08-01T06:14:12;10.07;;;4.13;;
31764;SDS011;18338;53.240;8.798;2022-08-01T06:16:39;12.32;;;4.03;;
31764;SDS011;18338;53.240;8.798;2022-08-01T06:19:05;13.13;;;3.67;;
31764;SDS011;18338;53.240;8.798;2022-08-01T06:21:32;12.27;;;3.65;;
31764;SDS011;18338;53.240;8.798;2022-08-01T06:23:59;9.93;;;3.67;;
31764;SDS011;18338;53.240;8.798;2022-08-01T06:26:25;8.70;;;3.45;;
31764;SDS011;18338;53.240;8.798;2022-08-01T06:28:52;7.18;;;3.63;;
31764;SDS011;18338;53.240;8.798;2022-08-01T06:31:19;11.85;;;4.43;;
31764;SDS011;18338;53.240;8.798;2022-08-01T06:33:48;11.23;;;3.90;;
31764;SDS011;18338;53.240;8.798;2022-08-01T06:36:15;9.45;;;3.65;;
31764;SDS011;18338;53.240;8.798;2022-08-01T06:38:42;11.43;;;3.88;;
31764;SDS011;18338;53.240;8.798;2022-08-01T06:41:08;13.20;;;4.22;;
31764;SDS011;18338;53.240;8.798;2022-08-01T06:43:35;10.68;;;3.95;;
31764;SDS011;18338;53.240;8.798;2022-08-01T06:46:02;10.35;;;3.60;;
31764;SDS011;18338;53.240;8.798;2022-08-01T06:48:28;11.52;;;3.40;;
31764;SDS011;18338;53.240;8.798;2022-08-01T06:50:55;12.27;;;3.50;;
31764;SDS011;18338;53.240;8.798;2022-08-01T06:53:35;10.48;;;3.25;;
31764;SDS011;18338;53.240;8.798;2022-08-01T06:56:03;11.00;;;4.32;;
31764;SDS011;18338;53.240;8.798;2022-08-01T06:58:30;10.63;;;3.00;;
31764;SDS011;18338;53.240;8.798;2022-08-01T07:00:57;8.10;;;3.15;;
31764;SDS011;18338;53.240;8.798;2022-08-01T07:03:24;11.30;;;3.75;;
31764;SDS011;18338;53.240;8.798;2022-08-01T07:05:52;9.63;;;3.28;;
31764;SDS011;18338;53.240;8.798;2022-08-01T07:08:20;8.27;;;3.55;;
31764;SDS011;18338;53.240;8.798;2022-08-01T07:10:47;11.18;;;3.40;;
31764;SDS011;18338;53.240;8.798;2022-08-01T07:13:13;11.10;;;3.40;;
31764;SDS011;18338;53.240;8.798;2022-08-01T07:15:44;11.00;;;3.40;;
31764;SDS011;18338;53.240;8.798;2022-08-01T07:18:11;8.25;;;3.75;;
31764;SDS011;18338;53.240;8.798;2022-08-01T07:20:37;8.35;;;2.53;;
31764;SDS011;18338;53.240;8.798;2022-08-01T07:23:17;12.15;;;3.28;;
31764;SDS011;18338;53.240;8.798;2022-08-01T07:25:47;10.75;;;3.13;;
31764;SDS011;18338;53.240;8.798;2022-08-01T07:28:18;9.88;;;3.13;;
31764;SDS011;18338;53.240;8.798;2022-08-01T07:30:44;11.38;;;3.20;;
31764;SDS011;18338;53.240;8.798;2022-08-01T07:33:11;10.40;;;3.17;;
31764;SDS011;18338;53.240;8.798;2022-08-01T07:35:38;12.00;;;2.85;;
31764;SDS011;18338;53.240;8.798;2022-08-01T07:38:06;11.10;;;3.30;;
31764;SDS011;18338;53.240;8.798;2022-08-01T07:40:37;7.05;;;2.45;;
31764;SDS011;18338;53.240;8.798;2022-08-01T07:43:04;9.45;;;2.65;;
31764;SDS011;18338;53.240;8.798;2022-08-01T07:45:31;8.85;;;2.95;;
31764;SDS011;18338;53.240;8.798;2022-08-01T07:48:04;8.63;;;2.45;;
31764;SDS011;18338;53.240;8.798;2022-08-01T07:50:34;10.80;;;2.75;;
31764;SDS011;18338;53.240;8.798;2022-08-01T07:53:00;6.57;;;2.05;;
31764;SDS011;18338;53.240;8.798;2022-08-01T07:55:28;9.88;;;2.97;;
31764;SDS011;18338;53.240;8.798;2022-08-01T07:57:55;8.95;;;2.15;;
31764;SDS011;18338;53.240;8.798;2022-08-01T08:00:22;8.00;;;2.45;;
31764;SDS011;18338;53.240;8.798;2022-08-01T08:02:49;9.60;;;2.80;;
31764;SDS011;18338;53.240;8.798;2022-08-01T08:05:16;7.63;;;2.05;;
31764;SDS011;18338;53.240;8.798;2022-08-01T08:08:06;7.63;;;2.20;;
31764;SDS011;18338;53.240;8.798;2022-08-01T08:10:34;5.97;;;2.10;;
31764;SDS011;18338;53.240;8.798;2022-08-01T08:13:00;6.20;;;1.70;;
31764;SDS011;18338;53.240;8.798;2022-08-01T08:15:28;6.80;;;1.77;;
31764;SDS011;18338;53.240;8.798;2022-08-01T08:17:55;8.88;;;2.05;;
31764;SDS011;18338;53.240;8.798;2022-08-01T08:20:21;6.10;;;2.22;;
31764;SDS011;18338;53.240;8.798;2022-08-01T08:22:51;8.13;;;2.45;;
31764;SDS011;18338;53.240;8.798;2022-08-01T08:25:17;10.60;;;2.42;;
31764;SDS011;18338;53.240;8.798;2022-08-01T08:27:51;11.50;;;2.45;;
31764;SDS011;18338;53.240;8.798;2022-08-01T08:30:19;10.20;;;2.55;;
31764;SDS011;18338;53.240;8.798;2022-08-01T08:32:47;8.40;;;2.28;;
31764;SDS011;18338;53.240;8.798;2022-08-01T08:35:13;8.45;;;1.95;;
31764;SDS011;18338;53.240;8.798;2022-08-01T08:37:48;8.80;;;1.65;;
31764;SDS011;18338;53.240;8.798;2022-08-01T08:40:15;7.25;;;2.00;;
31764;SDS011;18338;53.240;8.798;2022-08-01T08:42:42;7.50;;;2.08;;
31764;SDS011;18338;53.240;8.798;2022-08-01T08:45:10;5.82;;;1.60;;
31764;SDS011;18338;53.240;8.798;2022-08-01T08:47:37;3.40;;;1.48;;
31764;SDS011;18338;53.240;8.798;2022-08-01T08:50:05;5.40;;;1.42;;
31764;SDS011;18338;53.240;8.798;2022-08-01T08:52:33;5.30;;;1.30;;
31764;SDS011;18338;53.240;8.798;2022-08-01T08:55:03;4.65;;;1.25;;
31764;SDS011;18338;53.240;8.798;2022-08-01T08:57:31;3.90;;;1.23;;
31764;SDS011;18338;53.240;8.798;2022-08-01T08:59:58;6.82;;;1.70;;
31764;SDS011;18338;53.240;8.798;2022-08-01T09:02:25;5.10;;;1.33;;
31764;SDS011;18338;53.240;8.798;2022-08-01T09:04:52;4.38;;;1.40;;
31764;SDS011;18338;53.240;8.798;2022-08-01T09:07:19;5.10;;;1.73;;
31764;SDS011;18338;53.240;8.798;2022-08-01T09:09:46;2.85;;;1.23;;
31764;SDS011;18338;53.240;8.798;2022-08-01T09:12:17;5.15;;;1.50;;
31764;SDS011;18338;53.240;8.798;2022-08-01T09:14:45;6.88;;;1.60;;
31764;SDS011;18338;53.240;8.798;2022-08-01T09:17:14;4.28;;;1.13;;
31764;SDS011;18338;53.240;8.798;2022-08-01T09:19:43;6.25;;;1.70;;
31764;SDS011;18338;53.240;8.798;2022-08-01T09:22:21;5.82;;;1.50;;
31764;SDS011;18338;53.240;8.798;2022-08-01T09:27:27;4.75;;;1.75;;
31764;SDS011;18338;53.240;8.798;2022-08-01T09:30:06;4.55;;;1.45;;
31764;SDS011;18338;53.240;8.798;2022-08-01T09:32:36;5.10;;;1.15;;
31764;SDS011;18338;53.240;8.798;2022-08-01T09:40:48;6.18;;;1.30;;
31764;SDS011;18338;53.240;8.798;2022-08-01T09:43:15;5.03;;;1.20;;
31764;SDS011;18338;53.240;8.798;2022-08-01T09:45:42;7.95;;;1.95;;
31764;SDS011;18338;53.240;8.798;2022-08-01T09:48:15;4.55;;;1.48;;
31764;SDS011;18338;53.240;8.798;2022-08-01T09:50:43;5.25;;;1.45;;
31764;SDS011;18338;53.240;8.798;2022-08-01T09:53:11;6.78;;;1.65;;
31764;SDS011;18338;53.240;8.798;2022-08-01T09:56:07;6.57;;;1.30;;
31764;SDS011;18338;53.240;8.798;2022-08-01T09:58:57;4.80;;;1.15;;
31764;SDS011;18338;53.240;8.798;2022-08-01T10:01:49;5.18;;;1.40;;
31764;SDS011;18338;53.240;8.798;2022-08-01T10:04:25;5.75;;;1.48;;
31764;SDS011;18338;53.240;8.798;2022-08-01T10:06:52;7.15;;;1.40;;
31764;SDS011;18338;53.240;8.798;2022-08-01T10:09:35;5.47;;;1.55;;
31764;SDS011;18338;53.240;8.798;2022-08-01T10:12:06;3.83;;;1.15;;
31764;SDS011;18338;53.240;8.798;2022-08-01T10:14:41;2.88;;;1.15;;
31764;SDS011;18338;53.240;8.798;2022-08-01T10:17:16;7.47;;;1.80;;
31764;SDS011;18338;53.240;8.798;2022-08-01T10:19:45;5.38;;;1.23;;
31764;SDS011;18338;53.240;8.798;2022-08-01T10:22:16;4.80;;;1.58;;
31764;SDS011;18338;53.240;8.798;2022-08-01T10:24:46;7.65;;;1.75;;
31764;SDS011;18338;53.240;8.798;2022-08-01T10:27:15;4.38;;;1.25;;
31764;SDS011;18338;53.240;8.798;2022-08-01T10:30:01;4.82;;;1.50;;
31764;SDS011;18338;53.240;8.798;2022-08-01T10:32:49;6.00;;;1.35;;
31764;SDS011;18338;53.240;8.798;2022-08-01T10:35:20;6.55;;;1.02;;
31764;SDS011;18338;53.240;8.798;2022-08-01T10:38:07;4.45;;;1.30;;
31764;SDS011;18338;53.240;8.798;2022-08-01T10:40:39;6.25;;;1.30;;
31764;SDS011;18338;53.240;8.798;2022-08-01T10:43:08;3.42;;;1.20;;
31764;SDS011;18338;53.240;8.798;2022-08-01T10:45:36;6.78;;;1.10;;
31764;SDS011;18338;53.240;8.798;2022-08-01T10:50:42;4.97;;;1.27;;
31764;SDS011;18338;53.240;8.798;2022-08-01T10:58:29;4.70;;;1.17;;
31764;SDS011;18338;53.240;8.798;2022-08-01T11:04:01;3.15;;;0.80;;
31764;SDS011;18338;53.240;8.798;2022-08-01T11:14:31;4.50;;;1.15;;
31764;SDS011;18338;53.240;8.798;2022-08-01T11:17:39;4.78;;;1.33;;
31764;SDS011;18338;53.240;8.798;2022-08-01T11:28:31;4.35;;;1.00;;
31764;SDS011;18338;53.240;8.798;2022-08-01T11:41:27;5.10;;;1.65;;
31764;SDS011;18338;53.240;8.798;2022-08-01T11:44:07;7.15;;;1.27;;
31764;SDS011;18338;53.240;8.798;2022-08-01T11:54:50;3.40;;;1.27;;
31764;SDS011;18338;53.240;8.798;2022-08-01T11:57:23;3.85;;;1.20;;
31764;SDS011;18338;53.240;8.798;2022-08-01T12:00:00;4.50;;;1.13;;
31764;SDS011;18338;53.240;8.798;2022-08-01T12:02:34;4.93;;;1.42;;
31764;SDS011;18338;53.240;8.798;2022-08-01T12:05:05;6.32;;;1.52;;
31764;SDS011;18338;53.240;8.798;2022-08-01T12:07:39;5.28;;;1.50;;
31764;SDS011;18338;53.240;8.798;2022-08-01T12:10:09;6.85;;;1.83;;
31764;SDS011;18338;53.240;8.798;2022-08-01T12:12:42;6.72;;;1.33;;
31764;SDS011;18338;53.240;8.798;2022-08-01T12:15:11;5.18;;;1.42;;
31764;SDS011;18338;53.240;8.798;2022-08-01T12:20:24;4.18;;;1.33;;
31764;SDS011;18338;53.240;8.798;2022-08-01T12:22:59;4.57;;;1.30;;
31764;SDS011;18338;53.240;8.798;2022-08-01T12:25:27;4.55;;;1.33;;
31764;SDS011;18338;53.240;8.798;2022-08-01T12:27:58;4.13;;;1.35;;
31764;SDS011;18338;53.240;8.798;2022-08-01T12:30:26;4.63;;;1.33;;
31764;SDS011;18338;53.240;8.798;2022-08-01T12:32:53;2.35;;;1.00;;
31764;SDS011;18338;53.240;8.798;2022-08-01T12:35:22;3.20;;;1.00;;
31764;SDS011;18338;53.240;8.798;2022-08-01T12:38:00;3.05;;;1.00;;
31764;SDS011;18338;53.240;8.798;2022-08-01T12:40:30;5.85;;;1.30;;
31764;SDS011;18338;53.240;8.798;2022-08-01T12:43:00;5.53;;;1.10;;
31764;SDS011;18338;53.240;8.798;2022-08-01T12:45:32;4.22;;;1.42;;
31764;SDS011;18338;53.240;8.798;2022-08-01T12:48:22;6.13;;;1.33;;
31764;SDS011;18338;53.240;8.798;2022-08-01T12:50:51;7.05;;;1.63;;
31764;SDS011;18338;53.240;8.798;2022-08-01T12:53:19;5.30;;;1.45;;
31764;SDS011;18338;53.240;8.798;2022-08-01T12:55:53;6.10;;;1.38;;
31764;SDS011;18338;53.240;8.798;2022-08-01T12:58:30;4.40;;;1.27;;
31764;SDS011;18338;53.240;8.798;2022-08-01T13:01:07;4.75;;;1.45;;
31764;SDS011;18338;53.240;8.798;2022-08-01T13:03:36;3.88;;;1.10;;
31764;SDS011;18338;53.240;8.798;2022-08-01T13:06:09;4.07;;;1.30;;
31764;SDS011;18338;53.240;8.798;2022-08-01T13:08:41;3.50;;;1.13;;
31764;SDS011;18338;53.240;8.798;2022-08-01T13:11:10;5.93;;;1.52;;
31764;SDS011;18338;53.240;8.798;2022-08-01T13:13:44;4.25;;;1.42;;
31764;SDS011;18338;53.240;8.798;2022-08-01T13:16:18;5.78;;;1.30;;
31764;SDS011;18338;53.240;8.798;2022-08-01T13:19:03;6.15;;;1.40;;
31764;SDS011;18338;53.240;8.798;2022-08-01T13:21:31;5.25;;;1.20;;
31764;SDS011;18338;53.240;8.798;2022-08-01T13:24:22;4.78;;;1.40;;
31764;SDS011;18338;53.240;8.798;2022-08-01T13:26:50;4.10;;;1.35;;
31764;SDS011;18338;53.240;8.798;2022-08-01T13:29:33;3.30;;;1.10;;
31764;SDS011;18338;53.240;8.798;2022-08-01T13:32:13;5.22;;;1.10;;
31764;SDS011;18338;53.240;8.798;2022-08-01T13:35:06;5.00;;;1.40;;
31764;SDS011;18338;53.240;8.798;2022-08-01T13:37:38;4.55;;;1.40;;
31764;SDS011;18338;53.240;8.798;2022-08-01T13:40:07;3.65;;;1.00;;
31764;SDS011;18338;53.240;8.798;2022-08-01T13:42:35;5.88;;;1.20;;
31764;SDS011;18338;53.240;8.798;2022-08-01T13:45:02;3.10;;;1.08;;
31764;SDS011;18338;53.240;8.798;2022-08-01T13:47:39;5.07;;;1.40;;
31764;SDS011;18338;53.240;8.798;2022-08-01T13:50:27;4.35;;;1.50;;
31764;SDS011;18338;53.240;8.798;2022-08-01T13:52:54;4.78;;;1.27;;
31764;SDS011;18338;53.240;8.798;2022-08-01T13:55:21;2.47;;;1.30;;
31764;SDS011;18338;53.240;8.798;2022-08-01T13:57:48;3.42;;;1.08;;
31764;SDS011;18338;53.240;8.798;2022-08-01T14:00:16;5.05;;;1.10;;
31764;SDS011;18338;53.240;8.798;2022-08-01T14:02:43;6.50;;;1.48;;
31764;SDS011;18338;53.240;8.798;2022-08-01T14:05:09;5.55;;;1.30;;
31764;SDS011;18338;53.240;8.798;2022-08-01T14:07:37;3.92;;;1.33;;
31764;SDS011;18338;53.240;8.798;2022-08-01T14:10:06;4.38;;;1.15;;
31764;SDS011;18338;53.240;8.798;2022-08-01T14:12:45;5.03;;;1.40;;
31764;SDS011;18338;53.240;8.798;2022-08-01T14:15:17;4.38;;;1.27;;
31764;SDS011;18338;53.240;8.798;2022-08-01T14:18:04;4.38;;;1.27;;
31764;SDS011;18338;53.240;8.798;2022-08-01T14:20:32;5.20;;;1.60;;
31764;SDS011;18338;53.240;8.798;2022-08-01T14:23:00;5.00;;;1.65;;
31764;SDS011;18338;53.240;8.798;2022-08-01T14:25:27;6.85;;;1.30;;
31764;SDS011;18338;53.240;8.798;2022-08-01T14:28:14;4.78;;;1.48;;
31764;SDS011;18338;53.240;8.798;2022-08-01T14:30:40;4.07;;;1.20;;
31764;SDS011;18338;53.240;8.798;2022-08-01T14:33:09;3.75;;;1.30;;
31764;SDS011;18338;53.240;8.798;2022-08-01T14:35:36;3.92;;;1.38;;
31764;SDS011;18338;53.240;8.798;2022-08-01T14:38:22;6.00;;;1.30;;
31764;SDS011;18338;53.240;8.798;2022-08-01T14:40:57;7.15;;;1.50;;
31764;SDS011;18338;53.240;8.798;2022-08-01T14:43:24;5.53;;;1.15;;
31764;SDS011;18338;53.240;8.798;2022-08-01T14:45:58;4.38;;;1.60;;
31764;SDS011;18338;53.240;8.798;2022-08-01T14:48:26;3.35;;;1.40;;
31764;SDS011;18338;53.240;8.798;2022-08-01T14:50:54;4.43;;;1.10;;
31764;SDS011;18338;53.240;8.798;2022-08-01T14:53:21;5.50;;;1.38;;
31764;SDS011;18338;53.240;8.798;2022-08-01T14:55:48;6.00;;;1.75;;
31764;SDS011;18338;53.240;8.798;2022-08-01T14:58:15;5.25;;;1.38;;
31764;SDS011;18338;53.240;8.798;2022-08-01T15:00:42;5.65;;;1.45;;
31764;SDS011;18338;53.240;8.798;2022-08-01T15:03:09;3.88;;;1.05;;
31764;SDS011;18338;53.240;8.798;2022-08-01T15:05:36;5.72;;;1.25;;
31764;SDS011;18338;53.240;8.798;2022-08-01T15:08:03;4.97;;;1.30;;
31764;SDS011;18338;53.240;8.798;2022-08-01T15:10:31;5.93;;;1.23;;
31764;SDS011;18338;53.240;8.798;2022-08-01T15:12:58;3.05;;;1.30;;
31764;SDS011;18338;53.240;8.798;2022-08-01T15:15:26;4.07;;;1.23;;
31764;SDS011;18338;53.240;8.798;2022-08-01T15:17:54;7.22;;;1.63;;
31764;SDS011;18338;53.240;8.798;2022-08-01T15:20:21;5.28;;;1.60;;
31764;SDS011;18338;53.240;8.798;2022-08-01T15:22:48;4.93;;;1.42;;
31764;SDS011;18338;53.240;8.798;2022-08-01T15:25:15;4.15;;;1.20;;
31764;SDS011;18338;53.240;8.798;2022-08-01T15:27:42;6.68;;;1.20;;
31764;SDS011;18338;53.240;8.798;2022-08-01T15:30:08;5.47;;;1.23;;
31764;SDS011;18338;53.240;8.798;2022-08-01T15:32:36;4.22;;;1.23;;
31764;SDS011;18338;53.240;8.798;2022-08-01T15:35:03;4.93;;;1.20;;
31764;SDS011;18338;53.240;8.798;2022-08-01T15:37:32;5.28;;;1.58;;
31764;SDS011;18338;53.240;8.798;2022-08-01T15:40:01;5.57;;;1.27;;
31764;SDS011;18338;53.240;8.798;2022-08-01T15:42:28;6.07;;;1.40;;
31764;SDS011;18338;53.240;8.798;2022-08-01T15:44:56;4.43;;;1.20;;
31764;SDS011;18338;53.240;8.798;2022-08-01T15:47:23;4.35;;;1.42;;
31764;SDS011;18338;53.240;8.798;2022-08-01T15:49:51;6.13;;;1.50;;
31764;SDS011;18338;53.240;8.798;2022-08-01T15:52:19;5.22;;;1.30;;
31764;SDS011;18338;53.240;8.798;2022-08-01T15:54:56;5.78;;;1.38;;
31764;SDS011;18338;53.240;8.798;2022-08-01T15:57:23;2.75;;;1.15;;
31764;SDS011;18338;53.240;8.798;2022-08-01T15:59:50;4.28;;;1.30;;
31764;SDS011;18338;53.240;8.798;2022-08-01T16:02:17;4.72;;;1.25;;
31764;SDS011;18338;53.240;8.798;2022-08-01T16:04:44;5.93;;;1.52;;
31764;SDS011;18338;53.240;8.798;2022-08-01T16:07:11;4.28;;;1.15;;
31764;SDS011;18338;53.240;8.798;2022-08-01T16:09:38;3.35;;;1.23;;
31764;SDS011;18338;53.240;8.798;2022-08-01T16:12:05;3.60;;;1.38;;